createdAt,value
2019-03-23T00:00:43.009Z,14.80
2019-03-23T00:03:12.524Z,10.97
2019-03-23T00:05:41.937Z,10.93
2019-03-23T00:08:11.563Z,11.80
2019-03-23T00:10:41.146Z,12.77
2019-03-23T00:13:10.755Z,11.37
2019-03-23T00:18:00.919Z,13.13
2019-03-23T00:20:30.448Z,8.93
2019-03-23T00:22:59.915Z,13.33
2019-03-23T00:25:29.403Z,15.00
2019-03-23T00:27:59.151Z,16.70
2019-03-23T00:30:28.607Z,12.03
2019-03-23T00:32:58.029Z,12.33
2019-03-23T00:35:27.621Z,9.37
2019-03-23T00:37:57.086Z,11.93
2019-03-23T00:40:26.491Z,14.20
2019-03-23T00:42:56.045Z,12.47
2019-03-23T00:45:25.495Z,10.53
2019-03-23T00:47:54.958Z,10.40
2019-03-23T00:50:24.571Z,11.13
2019-03-23T00:52:53.994Z,14.13
2019-03-23T00:55:23.565Z,13.17
2019-03-23T00:57:52.966Z,12.33
2019-03-23T01:00:22.556Z,11.50
2019-03-23T01:02:52.135Z,10.60
2019-03-23T01:05:21.627Z,11.73
2019-03-23T01:07:51.130Z,11.27
2019-03-23T01:10:20.659Z,15.63
2019-03-23T01:12:50.165Z,10.47
2019-03-23T01:15:19.765Z,13.90
2019-03-23T01:17:49.101Z,14.23
2019-03-23T01:20:18.606Z,14.97
2019-03-23T01:22:48.086Z,13.90
2019-03-23T01:25:17.581Z,13.93
2019-03-23T01:27:47.110Z,14.53
2019-03-23T01:30:16.819Z,10.30
2019-03-23T01:32:46.259Z,12.93
2019-03-23T01:35:15.846Z,12.83
2019-03-23T01:37:45.248Z,13.47
2019-03-23T01:40:14.921Z,11.27
2019-03-23T01:42:44.619Z,11.93
2019-03-23T01:45:14.476Z,11.73
2019-03-23T01:47:43.958Z,12.93
2019-03-23T01:50:13.915Z,21.27
2019-03-23T01:52:43.403Z,11.93
2019-03-23T01:55:13.116Z,12.10
2019-03-23T01:57:42.683Z,12.55
2019-03-23T02:00:12.595Z,10.13
2019-03-23T02:02:42.131Z,13.13
2019-03-23T02:05:11.613Z,9.65
2019-03-23T02:07:41.168Z,12.73
2019-03-23T02:10:11.875Z,12.60
2019-03-23T02:12:41.419Z,11.63
2019-03-23T02:15:11.408Z,11.07
2019-03-23T02:17:40.994Z,10.97
2019-03-23T02:20:10.938Z,12.97
2019-03-23T02:22:40.456Z,9.57
2019-03-23T02:25:10.274Z,12.90
2019-03-23T02:27:39.809Z,16.00
2019-03-23T02:30:10.096Z,14.60
2019-03-23T02:32:39.555Z,16.67
2019-03-23T02:35:09.462Z,10.80
2019-03-23T02:37:38.903Z,16.47
2019-03-23T02:40:08.704Z,14.10
2019-03-23T02:42:38.211Z,16.77
2019-03-23T02:45:08.314Z,12.03
2019-03-23T02:47:37.801Z,12.82
2019-03-23T02:50:07.909Z,15.27
2019-03-23T02:52:37.797Z,10.37
2019-03-23T02:55:08.589Z,18.43
2019-03-23T02:57:38.513Z,14.57
2019-03-23T03:00:08.273Z,19.60
2019-03-23T03:02:37.832Z,12.70
2019-03-23T03:05:07.896Z,15.90
2019-03-23T03:07:42.319Z,15.37
2019-03-23T03:10:09.617Z,19.23
2019-03-23T03:12:39.128Z,14.13
2019-03-23T03:15:08.954Z,13.70
2019-03-23T03:17:38.455Z,13.83
2019-03-23T03:20:09.819Z,13.97
2019-03-23T03:22:39.425Z,16.60
2019-03-23T03:25:09.660Z,12.00
2019-03-23T03:27:39.446Z,13.13
2019-03-23T03:30:10.323Z,12.40
2019-03-23T03:32:39.737Z,15.53
2019-03-23T03:35:09.462Z,10.57
2019-03-23T03:37:38.908Z,11.40
2019-03-23T03:40:09.662Z,11.23
2019-03-23T03:42:39.153Z,16.30
2019-03-23T03:45:09.084Z,16.80
2019-03-23T03:47:41.210Z,12.97
2019-03-23T03:50:10.094Z,16.23
2019-03-23T03:52:39.684Z,18.43
2019-03-23T03:55:09.425Z,15.87
2019-03-23T03:57:39.046Z,12.27
2019-03-23T04:00:08.779Z,13.10
2019-03-23T04:02:38.136Z,13.87
2019-03-23T04:05:08.062Z,15.90
2019-03-23T04:07:37.571Z,13.67
2019-03-23T04:10:07.612Z,12.90
2019-03-23T04:12:37.073Z,12.70
2019-03-23T04:15:07.339Z,13.80
2019-03-23T04:17:36.648Z,12.47
2019-03-23T04:20:07.139Z,13.17
2019-03-23T04:22:36.412Z,14.77
2019-03-23T04:25:06.590Z,11.10
2019-03-23T04:27:36.346Z,15.00
2019-03-23T04:30:06.867Z,15.57
2019-03-23T04:32:36.317Z,11.63
2019-03-23T04:35:06.572Z,14.97
2019-03-23T04:37:35.906Z,16.13
2019-03-23T04:40:05.842Z,13.03
2019-03-23T04:42:35.258Z,12.33
2019-03-23T04:45:05.926Z,13.77
2019-03-23T04:47:35.244Z,12.17
2019-03-23T04:50:05.388Z,11.87
2019-03-23T04:52:34.945Z,16.73
2019-03-23T04:55:05.270Z,15.33
2019-03-23T04:57:34.685Z,13.67
2019-03-23T05:00:04.952Z,19.03
2019-03-23T05:02:34.541Z,14.70
2019-03-23T05:05:04.216Z,13.50
2019-03-23T05:07:33.735Z,11.57
2019-03-23T05:10:03.220Z,11.93
2019-03-23T05:12:32.668Z,11.93
2019-03-23T05:15:02.175Z,14.13
2019-03-23T05:17:31.690Z,13.13
2019-03-23T05:20:01.099Z,16.67
2019-03-23T05:22:30.646Z,14.37
2019-03-23T05:25:00.342Z,16.60
2019-03-23T05:27:29.902Z,16.00
2019-03-23T05:29:59.403Z,11.80
2019-03-23T05:32:28.896Z,15.85
2019-03-23T05:34:58.504Z,15.13
2019-03-23T05:37:27.923Z,14.33
2019-03-23T05:39:57.312Z,12.20
2019-03-23T05:42:26.780Z,21.20
2019-03-23T05:44:56.187Z,14.50
2019-03-23T05:47:25.592Z,14.33
2019-03-23T05:49:55.347Z,18.67
2019-03-23T05:52:24.848Z,14.37
2019-03-23T05:54:54.415Z,17.73
2019-03-23T05:57:23.971Z,11.43
2019-03-23T05:59:53.488Z,14.93
2019-03-23T06:02:22.758Z,14.87
2019-03-23T06:04:52.236Z,13.97
2019-03-23T06:07:21.669Z,14.70
2019-03-23T06:09:51.322Z,11.30
2019-03-23T06:12:20.728Z,14.73
2019-03-23T06:14:50.173Z,13.63
2019-03-23T06:17:19.596Z,10.53
2019-03-23T06:19:49.133Z,12.90
2019-03-23T06:22:18.551Z,18.97
2019-03-23T06:24:47.996Z,20.53
2019-03-23T06:27:17.320Z,23.53
2019-03-23T06:29:46.940Z,27.60
2019-03-23T06:32:16.457Z,19.97
2019-03-23T06:34:45.834Z,29.80
2019-03-23T06:37:15.268Z,19.03
2019-03-23T06:39:44.672Z,25.93
2019-03-23T06:42:14.083Z,21.90
2019-03-23T06:44:43.569Z,18.97
2019-03-23T06:47:13.013Z,29.60
2019-03-23T06:49:42.479Z,33.17
2019-03-23T06:52:12.034Z,31.73
2019-03-23T06:54:41.967Z,19.40
2019-03-23T06:57:11.663Z,19.60
2019-03-23T06:59:41.173Z,18.70
2019-03-23T07:02:10.899Z,15.37
2019-03-23T07:04:40.303Z,21.13
2019-03-23T07:07:09.896Z,22.52
2019-03-23T07:09:39.363Z,16.73
2019-03-23T07:12:08.872Z,15.93
2019-03-23T07:14:38.246Z,17.27
2019-03-23T07:17:07.619Z,21.77
2019-03-23T07:19:36.959Z,23.47
2019-03-23T07:22:06.606Z,14.77
2019-03-23T07:24:36.092Z,13.57
2019-03-23T07:27:05.613Z,17.77
2019-03-23T07:29:35.162Z,16.70
2019-03-23T07:32:05.971Z,18.03
2019-03-23T07:34:35.813Z,16.33
2019-03-23T07:37:05.291Z,16.90
2019-03-23T07:39:34.797Z,19.40
2019-03-23T07:42:04.448Z,20.97
2019-03-23T07:44:33.841Z,20.03
2019-03-23T07:47:03.558Z,24.60
2019-03-23T07:49:36.279Z,19.47
2019-03-23T07:52:05.791Z,15.53
2019-03-23T07:54:35.270Z,16.00
2019-03-23T07:57:04.607Z,16.60
2019-03-23T07:59:34.046Z,22.37
2019-03-23T08:02:03.571Z,18.77
2019-03-23T08:04:32.963Z,19.47
2019-03-23T08:07:02.449Z,20.73
2019-03-23T08:09:37.525Z,20.15
2019-03-23T08:12:03.141Z,19.43
2019-03-23T08:14:32.637Z,21.67
2019-03-23T08:17:02.077Z,29.93
2019-03-23T08:19:31.497Z,25.73
2019-03-23T08:22:01.041Z,34.10
2019-03-23T08:24:30.399Z,24.80
2019-03-23T08:26:59.914Z,25.43
2019-03-23T08:29:29.417Z,29.00
2019-03-23T08:31:59.026Z,26.27
2019-03-23T08:34:28.498Z,20.60
2019-03-23T08:36:58.024Z,31.30
2019-03-23T08:39:27.469Z,28.87
2019-03-23T08:41:57.067Z,32.83
2019-03-23T08:44:26.556Z,34.43
2019-03-23T08:46:56.022Z,30.20
2019-03-23T08:49:25.523Z,35.03
2019-03-23T08:51:54.980Z,31.90
2019-03-23T08:54:24.432Z,31.27
2019-03-23T08:56:53.884Z,33.73
2019-03-23T08:59:23.280Z,35.57
2019-03-23T09:01:52.819Z,43.10
2019-03-23T09:04:22.257Z,38.53
2019-03-23T09:06:51.728Z,35.80
2019-03-23T09:09:21.353Z,37.43
2019-03-23T09:11:50.766Z,33.40
2019-03-23T09:14:20.332Z,49.73
2019-03-23T09:16:49.781Z,42.40
2019-03-23T09:19:19.276Z,48.57
2019-03-23T09:21:48.745Z,44.13
2019-03-23T09:24:18.295Z,45.97
2019-03-23T09:26:47.625Z,45.17
2019-03-23T09:29:18.462Z,48.57
2019-03-23T09:31:47.896Z,43.87
2019-03-23T09:34:17.411Z,48.57
2019-03-23T09:36:46.956Z,42.00
2019-03-23T09:39:19.737Z,52.90
2019-03-23T09:41:49.380Z,47.63
2019-03-23T09:44:18.834Z,54.67
2019-03-23T09:46:48.263Z,41.70
2019-03-23T09:49:17.720Z,52.70
2019-03-23T09:51:47.085Z,45.47
2019-03-23T09:54:16.542Z,42.50
2019-03-23T09:56:46.038Z,48.67
2019-03-23T09:59:15.344Z,43.53
2019-03-23T10:01:44.795Z,45.80
2019-03-23T10:04:14.205Z,53.33
2019-03-23T10:06:43.728Z,53.57
2019-03-23T10:09:13.144Z,57.47
2019-03-23T10:11:42.470Z,49.63
2019-03-23T10:14:11.846Z,54.30
2019-03-23T10:16:41.312Z,53.10
2019-03-23T10:19:10.786Z,56.60
2019-03-23T10:21:40.313Z,58.90
2019-03-23T10:24:09.788Z,61.13
2019-03-23T10:26:39.217Z,59.97
2019-03-23T10:29:08.700Z,58.97
2019-03-23T10:31:38.140Z,62.10
2019-03-23T10:34:07.671Z,50.93
2019-03-23T10:36:37.148Z,63.50
2019-03-23T10:39:07.324Z,50.27
2019-03-23T10:41:36.868Z,53.57
2019-03-23T10:44:06.393Z,51.97
2019-03-23T10:46:35.962Z,61.13
2019-03-23T10:49:05.551Z,59.73
2019-03-23T10:51:35.021Z,66.20
2019-03-23T10:54:05.044Z,61.53
2019-03-23T10:56:34.448Z,64.07
2019-03-23T10:59:03.888Z,60.40
2019-03-23T11:01:33.446Z,58.07
2019-03-23T11:04:02.943Z,56.00
2019-03-23T11:06:32.352Z,60.27
2019-03-23T11:09:01.884Z,62.23
2019-03-23T11:11:31.424Z,64.70
2019-03-23T11:14:00.742Z,67.67
2019-03-23T11:16:30.191Z,61.77
2019-03-23T11:18:59.637Z,57.90
2019-03-23T11:21:29.101Z,59.43
2019-03-23T11:23:58.671Z,66.43
2019-03-23T11:26:28.283Z,61.27
2019-03-23T11:28:57.711Z,63.23
2019-03-23T11:31:27.115Z,58.93
2019-03-23T11:33:56.678Z,64.73
2019-03-23T11:36:26.099Z,57.77
2019-03-23T11:38:55.487Z,61.33
2019-03-23T11:41:24.970Z,63.90
2019-03-23T11:43:54.478Z,61.03
2019-03-23T11:46:23.872Z,64.07
2019-03-23T11:48:53.357Z,70.60
2019-03-23T11:51:22.854Z,74.80
2019-03-23T11:53:52.193Z,68.10
2019-03-23T11:56:21.725Z,70.27
2019-03-23T11:58:51.217Z,74.10
2019-03-23T12:01:20.635Z,74.77
2019-03-23T12:03:50.125Z,77.53
2019-03-23T12:06:19.620Z,81.80
2019-03-23T12:08:49.232Z,75.60
2019-03-23T12:11:18.733Z,79.63
2019-03-23T12:13:48.162Z,81.93
2019-03-23T12:16:17.619Z,76.00
2019-03-23T12:18:46.942Z,77.40
2019-03-23T12:21:16.498Z,82.57
2019-03-23T12:23:46.040Z,84.97
2019-03-23T12:26:15.356Z,87.27
2019-03-23T12:28:44.852Z,79.40
2019-03-23T12:31:14.664Z,84.47
2019-03-23T12:33:44.108Z,82.97
2019-03-23T12:36:13.874Z,79.37
2019-03-23T12:38:43.428Z,77.03
2019-03-23T12:41:22.820Z,80.07
2019-03-23T12:43:44.135Z,78.60
2019-03-23T12:46:13.751Z,76.47
2019-03-23T12:48:43.178Z,77.20
2019-03-23T12:51:12.685Z,83.03
2019-03-23T12:53:42.249Z,80.37
2019-03-23T12:56:11.806Z,80.00
2019-03-23T12:58:41.293Z,80.70
2019-03-23T13:01:10.697Z,76.67
2019-03-23T13:03:40.273Z,77.67
2019-03-23T13:06:09.843Z,79.17
2019-03-23T13:08:39.440Z,81.80
2019-03-23T13:11:08.936Z,82.40
2019-03-23T13:13:38.462Z,84.93
2019-03-23T13:16:07.884Z,82.13
2019-03-23T13:18:37.485Z,85.33
2019-03-23T13:21:07.060Z,84.50
2019-03-23T13:23:36.632Z,83.37
2019-03-23T13:26:06.180Z,89.47
2019-03-23T13:28:35.536Z,88.70
2019-03-23T13:31:05.192Z,78.90
2019-03-23T13:33:35.111Z,82.65
2019-03-23T13:36:06.108Z,80.73
2019-03-23T13:38:35.649Z,83.93
2019-03-23T13:41:05.261Z,82.47
2019-03-23T13:43:35.048Z,82.60
2019-03-23T13:46:04.527Z,89.73
2019-03-23T13:48:33.982Z,85.80
2019-03-23T13:51:03.440Z,84.07
2019-03-23T13:53:32.859Z,84.57
2019-03-23T13:56:02.388Z,83.10
2019-03-23T13:58:31.834Z,83.00
2019-03-23T14:01:01.334Z,83.50
2019-03-23T14:03:30.868Z,78.53
2019-03-23T14:06:00.453Z,83.73
2019-03-23T14:08:30.069Z,85.00
2019-03-23T14:10:59.565Z,82.57
2019-03-23T14:13:28.950Z,84.80
2019-03-23T14:15:58.520Z,81.73
2019-03-23T14:18:27.969Z,84.20
2019-03-23T14:20:57.363Z,84.30
2019-03-23T14:23:26.865Z,82.00
2019-03-23T14:25:56.431Z,85.43
2019-03-23T14:28:25.787Z,83.33
2019-03-23T14:30:55.143Z,83.30
2019-03-23T14:33:24.554Z,88.53
2019-03-23T14:35:54.022Z,87.40
2019-03-23T14:38:23.479Z,84.30
2019-03-23T14:40:53.000Z,96.70
2019-03-23T14:43:22.574Z,92.50
2019-03-23T14:45:51.975Z,97.33
2019-03-23T14:48:21.519Z,92.53
2019-03-23T14:50:50.903Z,99.73
2019-03-23T14:53:20.425Z,102.47
2019-03-23T14:55:49.862Z,106.33
2019-03-23T14:58:19.351Z,107.97
2019-03-23T15:00:48.878Z,104.13
2019-03-23T15:03:18.336Z,102.17
2019-03-23T15:05:47.746Z,100.17
2019-03-23T15:08:17.372Z,111.97
2019-03-23T15:10:46.760Z,110.67
2019-03-23T15:13:16.289Z,101.95
2019-03-23T15:15:45.613Z,111.23
2019-03-23T15:18:15.173Z,111.23
2019-03-23T15:20:44.828Z,117.57
2019-03-23T15:23:14.352Z,107.97
2019-03-23T15:25:46.922Z,106.73
2019-03-23T15:28:20.411Z,112.43
2019-03-23T15:30:50.846Z,97.07
2019-03-23T15:33:20.388Z,106.60
2019-03-23T15:35:49.984Z,104.83
2019-03-23T15:38:19.391Z,118.10
2019-03-23T15:40:48.929Z,105.03
2019-03-23T15:43:18.388Z,108.27
2019-03-23T15:45:47.895Z,117.63
2019-03-23T15:48:17.409Z,106.10
2019-03-23T15:50:46.871Z,110.87
2019-03-23T15:53:16.358Z,100.67
2019-03-23T15:55:45.916Z,111.27
2019-03-23T15:58:15.413Z,106.97
2019-03-23T16:00:45.255Z,109.77
2019-03-23T16:03:14.823Z,105.33
2019-03-23T16:05:44.247Z,111.63
2019-03-23T16:08:13.770Z,105.33
2019-03-23T16:10:43.307Z,109.43
2019-03-23T16:13:12.756Z,102.80
2019-03-23T16:15:42.218Z,103.23
2019-03-23T16:18:11.770Z,93.83
2019-03-23T16:20:41.303Z,106.33
2019-03-23T16:23:10.792Z,106.43
2019-03-23T16:25:40.265Z,112.50
2019-03-23T16:28:09.658Z,107.43
2019-03-23T16:30:39.132Z,112.83
2019-03-23T16:33:08.914Z,108.07
2019-03-23T16:35:38.359Z,111.57
2019-03-23T16:38:07.878Z,115.97
2019-03-23T16:40:37.379Z,110.70
2019-03-23T16:43:06.900Z,108.80
2019-03-23T16:45:36.390Z,94.67
2019-03-23T16:48:05.929Z,107.60
2019-03-23T16:50:35.338Z,115.50
2019-03-23T16:53:04.834Z,119.77
2019-03-23T16:55:34.378Z,113.17
2019-03-23T16:58:03.950Z,112.33
2019-03-23T17:00:37.627Z,112.70
2019-03-23T17:03:07.900Z,113.60
2019-03-23T17:05:37.455Z,121.13
2019-03-23T17:08:07.184Z,109.93
2019-03-23T17:10:36.882Z,113.43
2019-03-23T17:13:06.439Z,112.47
2019-03-23T17:15:35.969Z,118.37
2019-03-23T17:18:05.532Z,103.97
2019-03-23T17:20:34.928Z,108.77
2019-03-23T17:23:04.419Z,109.23
2019-03-23T17:25:33.900Z,109.67
2019-03-23T17:28:03.700Z,102.73
2019-03-23T17:30:33.141Z,103.53
2019-03-23T17:33:03.105Z,102.10
2019-03-23T17:35:32.730Z,104.87
2019-03-23T17:38:02.339Z,99.33
2019-03-23T17:40:32.035Z,100.50
2019-03-23T17:43:06.037Z,73.07
2019-03-23T17:45:32.706Z,103.20
2019-03-23T17:48:02.450Z,99.65
2019-03-23T17:50:32.000Z,104.07
2019-03-23T17:53:01.393Z,102.50
2019-03-23T17:55:30.948Z,104.23
2019-03-23T17:58:00.457Z,110.20
2019-03-23T18:00:30.659Z,101.60
2019-03-23T18:03:00.137Z,102.90
2019-03-23T18:05:29.599Z,103.37
2019-03-23T18:07:59.118Z,99.33
2019-03-23T18:10:28.630Z,109.40
2019-03-23T18:12:58.199Z,105.53
2019-03-23T18:15:27.718Z,98.40
2019-03-23T18:17:57.253Z,103.03
2019-03-23T18:20:26.887Z,106.67
2019-03-23T18:22:56.406Z,106.17
2019-03-23T18:25:26.020Z,106.07
2019-03-23T18:27:55.561Z,108.53
2019-03-23T18:30:42.719Z,113.97
2019-03-23T18:33:12.346Z,100.33
2019-03-23T18:35:42.087Z,105.33
2019-03-23T18:38:11.574Z,106.40
2019-03-23T18:40:41.161Z,107.13
2019-03-23T18:43:10.700Z,113.10
2019-03-23T18:45:40.192Z,114.63
2019-03-23T18:48:09.746Z,112.97
2019-03-23T18:50:39.334Z,112.17
2019-03-23T18:53:08.728Z,119.37
2019-03-23T18:55:38.376Z,111.57
2019-03-23T18:58:07.930Z,114.13
2019-03-23T19:00:39.635Z,117.37
2019-03-23T19:03:09.123Z,113.60
2019-03-23T19:05:38.695Z,113.67
2019-03-23T19:08:08.462Z,112.13
2019-03-23T19:10:37.951Z,109.37
2019-03-23T19:13:07.597Z,107.53
2019-03-23T19:15:37.116Z,111.03
2019-03-23T19:18:07.249Z,111.43
2019-03-23T19:20:37.139Z,114.07
2019-03-23T19:23:07.334Z,114.60
2019-03-23T19:25:37.198Z,120.00
2019-03-23T19:28:06.852Z,116.07
2019-03-23T19:30:36.460Z,116.75
2019-03-23T19:33:06.362Z,112.10
2019-03-23T19:35:35.964Z,117.73
2019-03-23T19:38:05.494Z,108.00
2019-03-23T19:40:34.946Z,116.83
2019-03-23T19:43:04.685Z,109.20
2019-03-23T19:45:34.232Z,118.43
2019-03-23T19:48:03.824Z,116.77
2019-03-23T19:50:33.412Z,121.07
2019-03-23T19:53:03.052Z,123.90
2019-03-23T19:55:32.945Z,117.30
2019-03-23T19:58:02.512Z,124.20
2019-03-23T20:00:32.117Z,118.87
2019-03-23T20:03:01.626Z,110.13
2019-03-23T20:05:31.249Z,114.30
2019-03-23T20:08:00.651Z,109.73
2019-03-23T20:10:30.156Z,101.30
2019-03-23T20:12:59.712Z,100.87
2019-03-23T20:15:29.223Z,97.50
2019-03-23T20:17:58.714Z,97.07
2019-03-23T20:20:28.235Z,95.17
2019-03-23T20:22:57.656Z,96.77
2019-03-23T20:25:27.027Z,98.07
2019-03-23T20:27:56.774Z,88.17
2019-03-23T20:30:26.241Z,77.45
2019-03-23T20:32:55.773Z,92.60
2019-03-23T20:35:25.235Z,79.70
2019-03-23T20:37:54.877Z,87.00
2019-03-23T20:40:24.348Z,87.33
2019-03-23T20:42:53.941Z,82.30
2019-03-23T20:45:30.699Z,87.37
2019-03-23T20:48:00.515Z,89.83
2019-03-23T20:50:30.054Z,87.03
2019-03-23T20:52:59.674Z,87.13
2019-03-23T20:55:30.533Z,77.60
2019-03-23T20:58:00.214Z,77.13
2019-03-23T21:00:29.949Z,80.73
2019-03-23T21:02:59.463Z,86.70
2019-03-23T21:05:33.811Z,74.67
2019-03-23T21:08:00.238Z,83.73
2019-03-23T21:10:29.860Z,71.57
2019-03-23T21:12:59.418Z,76.70
2019-03-23T21:15:28.907Z,69.27
2019-03-23T21:17:58.434Z,72.03
2019-03-23T21:20:27.812Z,66.17
2019-03-23T21:22:57.461Z,67.83
2019-03-23T21:25:27.182Z,81.30
2019-03-23T21:27:56.542Z,77.53
2019-03-23T21:30:26.020Z,92.33
2019-03-23T21:32:55.465Z,85.80
2019-03-23T21:35:24.995Z,94.80
2019-03-23T21:37:54.634Z,92.87
2019-03-23T21:40:24.192Z,99.07
2019-03-23T21:42:53.814Z,96.87
2019-03-23T21:45:23.497Z,108.97
2019-03-23T21:47:53.031Z,100.83
2019-03-23T21:50:25.378Z,96.73
2019-03-23T21:52:54.834Z,102.23
2019-03-23T21:55:24.287Z,102.63
2019-03-23T21:57:53.792Z,101.33
2019-03-23T22:00:33.911Z,109.17
2019-03-23T22:03:03.680Z,110.63
2019-03-23T22:05:33.145Z,119.20
2019-03-23T22:08:02.648Z,120.23
2019-03-23T22:10:32.200Z,109.77
2019-03-23T22:13:01.627Z,115.87
2019-03-23T22:15:33.080Z,113.80
2019-03-23T22:18:02.605Z,115.13
2019-03-23T22:20:32.332Z,107.33
2019-03-23T22:23:02.227Z,114.60
2019-03-23T22:25:31.656Z,127.27
2019-03-23T22:28:01.139Z,112.23
2019-03-23T22:30:30.793Z,115.13
2019-03-23T22:33:00.185Z,116.17
2019-03-23T22:35:29.589Z,131.73
2019-03-23T22:37:59.046Z,120.57
2019-03-23T22:40:28.473Z,105.50
2019-03-23T22:42:58.114Z,122.00
2019-03-23T22:45:27.698Z,118.10
2019-03-23T22:47:57.160Z,121.00
2019-03-23T22:50:26.620Z,131.37
2019-03-23T22:52:56.109Z,114.53
2019-03-23T22:55:25.580Z,116.90
2019-03-23T22:57:55.055Z,118.17
2019-03-23T23:00:42.627Z,113.17
2019-03-23T23:03:13.497Z,124.87
2019-03-23T23:05:43.468Z,122.93
2019-03-23T23:08:13.002Z,116.13
2019-03-23T23:10:42.612Z,113.70
2019-03-23T23:13:12.047Z,115.93
2019-03-23T23:15:41.677Z,115.10
2019-03-23T23:18:11.072Z,109.97
2019-03-23T23:20:40.646Z,115.20
2019-03-23T23:23:10.200Z,118.87
2019-03-23T23:25:40.527Z,109.37
2019-03-23T23:28:10.005Z,105.37
2019-03-23T23:30:39.413Z,100.00
2019-03-23T23:33:09.280Z,107.93
2019-03-23T23:35:38.692Z,91.33
2019-03-23T23:38:08.223Z,95.80
2019-03-23T23:40:37.701Z,100.97
2019-03-23T23:43:07.243Z,107.93
2019-03-23T23:45:36.733Z,98.73
2019-03-23T23:48:06.272Z,95.73
2019-03-23T23:50:36.420Z,90.83
2019-03-23T23:53:05.968Z,100.60
2019-03-23T23:55:35.472Z,88.80
2019-03-23T23:58:05.191Z,87.30
